createdAt,value
2019-06-01T00:01:38.324Z,9.83
2019-06-01T00:04:09.810Z,9.83
2019-06-01T00:06:40.796Z,9.63
2019-06-01T00:09:12.560Z,10.53
2019-06-01T00:11:43.381Z,9.73
2019-06-01T00:14:14.407Z,11.23
2019-06-01T00:16:46.032Z,11.50
2019-06-01T00:19:16.955Z,11.73
2019-06-01T00:21:47.979Z,10.70
2019-06-01T00:24:18.899Z,9.77
2019-06-01T00:26:51.993Z,10.03
2019-06-01T00:29:22.819Z,9.00
2019-06-01T00:31:53.579Z,8.67
2019-06-01T00:34:24.263Z,8.40
2019-06-01T00:36:55.349Z,10.43
2019-06-01T00:39:26.146Z,10.37
2019-06-01T00:41:57.034Z,9.30
2019-06-01T00:44:27.691Z,10.07
2019-06-01T00:46:59.147Z,9.97
2019-06-01T00:49:29.710Z,9.37
2019-06-01T00:52:00.578Z,9.40
2019-06-01T00:54:31.532Z,9.37
2019-06-01T00:57:02.382Z,8.43
2019-06-01T00:59:33.387Z,9.13
2019-06-01T01:02:04.775Z,9.20
2019-06-01T01:04:35.626Z,10.20
2019-06-01T01:07:06.553Z,9.57
2019-06-01T01:09:37.661Z,9.90
2019-06-01T01:12:08.538Z,10.93
2019-06-01T01:14:39.283Z,10.17
2019-06-01T01:17:10.075Z,11.00
2019-06-01T01:19:40.811Z,9.17
2019-06-01T01:22:11.618Z,9.20
2019-06-01T01:24:42.594Z,8.70
2019-06-01T01:27:13.287Z,8.87
2019-06-01T01:29:44.113Z,9.10
2019-06-01T01:32:14.938Z,8.53
2019-06-01T01:34:45.672Z,8.73
2019-06-01T01:37:16.325Z,7.73
2019-06-01T01:39:48.034Z,8.53
2019-06-01T01:42:18.802Z,9.73
2019-06-01T01:44:50.502Z,9.33
2019-06-01T01:47:21.663Z,8.80
2019-06-01T01:49:52.323Z,9.57
2019-06-01T01:52:23.010Z,8.30
2019-06-01T01:54:54.733Z,5.73
2019-06-01T01:57:25.584Z,5.20
2019-06-01T01:59:57.398Z,6.47
2019-06-01T02:02:30.325Z,9.53
2019-06-01T02:05:02.179Z,10.90
2019-06-01T02:07:35.786Z,8.13
2019-06-01T02:10:08.889Z,8.70
2019-06-01T02:12:39.686Z,8.93
2019-06-01T02:15:10.502Z,7.57
2019-06-01T02:17:41.290Z,6.40
2019-06-01T02:20:12.492Z,6.13
2019-06-01T02:22:43.092Z,6.33
2019-06-01T02:25:13.975Z,6.50
2019-06-01T02:27:44.840Z,6.40
2019-06-01T02:30:17.199Z,5.57
2019-06-01T02:32:47.899Z,5.87
2019-06-01T02:35:18.532Z,5.30
2019-06-01T02:37:49.257Z,5.57
2019-06-01T02:40:20.527Z,5.53
2019-06-01T02:42:51.230Z,5.03
2019-06-01T02:45:22.624Z,5.83
2019-06-01T02:47:57.437Z,6.70
2019-06-01T02:50:28.633Z,7.30
2019-06-01T02:52:59.689Z,7.50
2019-06-01T02:55:30.377Z,6.73
2019-06-01T02:58:02.388Z,7.70
2019-06-01T03:00:48.217Z,8.83
2019-06-01T03:03:19.959Z,10.43
2019-06-01T03:05:53.644Z,9.50
2019-06-01T03:08:26.788Z,10.93
2019-06-01T03:10:59.692Z,10.33
2019-06-01T03:13:33.579Z,11.00
2019-06-01T03:16:08.918Z,8.87
2019-06-01T03:18:43.054Z,7.37
2019-06-01T03:21:16.777Z,6.60
2019-06-01T03:23:50.000Z,7.23
2019-06-01T03:26:23.688Z,6.20
2019-06-01T03:28:54.654Z,7.70
2019-06-01T03:31:25.326Z,8.07
2019-06-01T03:33:56.416Z,9.00
2019-06-01T03:36:27.211Z,7.47
2019-06-01T03:38:59.988Z,8.10
2019-06-01T03:41:32.133Z,7.83
2019-06-01T03:44:04.407Z,8.07
2019-06-01T03:46:35.289Z,8.37
2019-06-01T03:49:06.197Z,8.37
2019-06-01T03:51:37.503Z,9.37
2019-06-01T03:54:09.966Z,8.87
2019-06-01T03:56:41.310Z,10.13
2019-06-01T03:59:12.324Z,8.67
2019-06-01T04:01:47.060Z,10.00
2019-06-01T04:04:17.560Z,8.97
2019-06-01T04:06:49.147Z,10.20
2019-06-01T04:09:20.160Z,9.33
2019-06-01T04:11:50.976Z,10.13
2019-06-01T04:14:23.501Z,10.17
2019-06-01T04:16:54.921Z,10.10
2019-06-01T04:19:26.893Z,10.77
2019-06-01T04:21:57.796Z,11.07
2019-06-01T04:24:28.517Z,11.10
2019-06-01T04:26:59.338Z,10.50
2019-06-01T04:29:30.139Z,10.77
2019-06-01T04:32:02.402Z,10.63
2019-06-01T04:34:35.713Z,10.50
2019-06-01T04:37:07.049Z,10.83
2019-06-01T04:39:38.225Z,11.37
2019-06-01T04:42:09.778Z,11.17
2019-06-01T04:44:40.814Z,10.97
2019-06-01T04:47:12.569Z,11.30
2019-06-01T04:49:43.440Z,10.70
2019-06-01T04:52:15.224Z,10.47
2019-06-01T04:54:46.326Z,9.87
2019-06-01T04:57:17.278Z,10.37
2019-06-01T04:59:48.533Z,10.17
2019-06-01T05:02:19.600Z,9.00
2019-06-01T05:04:50.641Z,10.53
2019-06-01T05:07:21.433Z,10.40
2019-06-01T05:09:52.216Z,10.67
2019-06-01T05:12:23.148Z,9.90
2019-06-01T05:14:53.786Z,9.93
2019-06-01T05:17:24.566Z,10.20
2019-06-01T05:19:57.212Z,10.33
2019-06-01T05:22:28.231Z,10.60
2019-06-01T05:24:59.320Z,9.67
2019-06-01T05:27:30.200Z,10.20
2019-06-01T05:30:00.947Z,11.25
2019-06-01T05:32:32.084Z,11.18
2019-06-01T05:35:02.892Z,10.45
2019-06-01T05:37:34.087Z,8.93
2019-06-01T05:40:10.481Z,11.33
2019-06-01T05:42:42.161Z,12.45
2019-06-01T05:45:13.583Z,12.03
2019-06-01T05:47:44.337Z,11.22
2019-06-01T05:50:18.865Z,10.72
2019-06-01T05:52:49.795Z,9.63
2019-06-01T05:55:20.882Z,9.98
2019-06-01T05:57:51.881Z,10.08
2019-06-01T06:00:31.747Z,9.35
2019-06-01T06:03:03.500Z,9.85
2019-06-01T06:05:35.195Z,9.35
2019-06-01T06:08:06.822Z,9.43
2019-06-01T06:10:37.524Z,8.65
2019-06-01T06:13:08.265Z,8.88
2019-06-01T06:15:39.023Z,8.58
2019-06-01T06:18:10.131Z,8.70
2019-06-01T06:20:40.859Z,8.43
2019-06-01T06:23:12.215Z,9.03
2019-06-01T06:25:43.134Z,9.13
2019-06-01T06:28:14.607Z,8.73
2019-06-01T06:30:45.502Z,8.65
2019-06-01T06:33:17.356Z,9.63
2019-06-01T06:35:48.958Z,8.95
2019-06-01T06:38:20.020Z,8.75
2019-06-01T06:40:53.207Z,7.15
2019-06-01T06:43:32.431Z,7.50
2019-06-01T06:45:56.457Z,7.42
2019-06-01T06:48:27.208Z,7.17
2019-06-01T06:50:58.373Z,6.70
2019-06-01T06:53:34.984Z,6.25
2019-06-01T06:56:01.859Z,6.17
2019-06-01T06:58:32.621Z,6.20
2019-06-01T07:01:05.147Z,6.10
2019-06-01T07:03:36.198Z,5.55
2019-06-01T07:06:07.983Z,5.25
2019-06-01T07:08:38.931Z,4.55
2019-06-01T07:11:11.869Z,4.80
2019-06-01T07:13:42.738Z,5.00
2019-06-01T07:16:15.879Z,5.05
2019-06-01T07:18:46.453Z,5.30
2019-06-01T07:21:24.072Z,5.15
2019-06-01T07:23:55.543Z,4.90
2019-06-01T07:26:26.368Z,4.28
2019-06-01T07:28:58.730Z,5.33
2019-06-01T07:31:29.959Z,4.30
2019-06-01T07:34:02.208Z,5.28
2019-06-01T07:36:37.622Z,5.03
2019-06-01T07:39:08.784Z,4.95
2019-06-01T07:41:41.786Z,5.65
2019-06-01T07:44:12.894Z,5.62
2019-06-01T07:46:44.317Z,4.70
2019-06-01T07:49:15.232Z,4.90
2019-06-01T07:51:46.780Z,4.67
2019-06-01T07:54:18.279Z,4.87
2019-06-01T07:56:49.431Z,4.60
2019-06-01T07:59:21.326Z,4.42
2019-06-01T08:01:53.473Z,3.75
2019-06-01T08:04:26.672Z,3.70
2019-06-01T08:06:57.394Z,3.95
2019-06-01T08:09:29.589Z,4.40
2019-06-01T08:12:00.949Z,4.50
2019-06-01T08:14:32.875Z,4.45
2019-06-01T08:17:03.869Z,4.92
2019-06-01T08:19:53.194Z,4.22
2019-06-01T08:22:24.138Z,4.70
2019-06-01T08:24:54.947Z,4.40
2019-06-01T08:27:26.498Z,4.92
2019-06-01T08:29:57.418Z,4.03
2019-06-01T08:32:28.727Z,4.50
2019-06-01T08:35:08.676Z,4.78
2019-06-01T08:37:33.625Z,5.03
2019-06-01T08:40:07.687Z,3.83
2019-06-01T08:42:39.144Z,4.00
2019-06-01T08:45:10.662Z,3.52
2019-06-01T08:47:41.545Z,2.98
2019-06-01T08:50:12.892Z,3.67
2019-06-01T08:52:43.662Z,3.72
2019-06-01T08:55:15.278Z,3.77
2019-06-01T08:57:46.302Z,3.50
2019-06-01T09:00:17.825Z,2.80
2019-06-01T09:02:49.393Z,4.05
2019-06-01T09:05:24.277Z,3.70
2019-06-01T09:07:54.144Z,3.55
2019-06-01T09:10:25.296Z,3.90
2019-06-01T09:12:58.004Z,3.22
2019-06-01T09:15:29.738Z,3.17
2019-06-01T09:18:00.794Z,3.47
2019-06-01T09:20:35.869Z,3.65
2019-06-01T09:23:05.443Z,3.62
2019-06-01T09:25:36.219Z,3.33
2019-06-01T09:28:07.495Z,3.10
2019-06-01T09:30:38.814Z,2.83
2019-06-01T09:33:10.098Z,2.83
2019-06-01T09:35:54.356Z,3.58
2019-06-01T09:38:15.408Z,2.72
2019-06-01T09:40:46.574Z,2.83
2019-06-01T09:43:17.487Z,3.85
2019-06-01T09:45:52.771Z,3.35
2019-06-01T09:48:22.049Z,3.42
2019-06-01T09:50:53.144Z,3.40
2019-06-01T09:53:24.353Z,3.55
2019-06-01T09:55:55.415Z,3.37
2019-06-01T09:58:28.233Z,3.30
2019-06-01T10:00:59.376Z,4.00
2019-06-01T10:03:32.302Z,3.85
2019-06-01T10:06:04.420Z,3.90
2019-06-01T10:08:36.120Z,3.85
2019-06-01T10:11:07.481Z,3.90
2019-06-01T10:13:38.811Z,4.00
2019-06-01T10:16:10.353Z,4.03
2019-06-01T10:18:43.016Z,4.17
2019-06-01T10:21:14.111Z,3.60
2019-06-01T10:23:49.020Z,4.72
2019-06-01T10:26:18.088Z,4.65
2019-06-01T10:28:51.076Z,4.35
2019-06-01T10:31:22.275Z,4.40
2019-06-01T10:33:53.406Z,4.40
2019-06-01T10:36:24.662Z,3.90
2019-06-01T10:38:56.636Z,4.12
2019-06-01T10:41:27.935Z,4.03
2019-06-01T10:43:58.819Z,4.50
2019-06-01T10:46:29.836Z,4.45
2019-06-01T10:49:00.680Z,4.83
2019-06-01T10:51:32.096Z,4.90
2019-06-01T10:54:03.174Z,4.72
2019-06-01T10:56:34.371Z,4.50
2019-06-01T10:59:06.113Z,4.62
2019-06-01T11:01:37.854Z,4.37
2019-06-01T11:04:09.413Z,4.50
2019-06-01T11:06:44.914Z,4.50
2019-06-01T11:09:14.076Z,4.47
2019-06-01T11:11:44.877Z,4.75
2019-06-01T11:14:17.236Z,4.30
2019-06-01T11:16:55.767Z,4.37
2019-06-01T11:19:21.380Z,4.03
2019-06-01T11:21:52.585Z,4.83
2019-06-01T11:24:25.570Z,10.35
2019-06-01T11:26:56.761Z,4.47
2019-06-01T11:29:28.127Z,4.62
2019-06-01T11:31:58.946Z,4.45
2019-06-01T11:34:29.962Z,3.98
2019-06-01T11:37:05.402Z,4.62
2019-06-01T11:39:34.265Z,4.87
2019-06-01T11:42:05.433Z,4.40
2019-06-01T11:44:36.631Z,4.75
2019-06-01T11:47:07.237Z,3.70
2019-06-01T11:49:38.672Z,4.28
2019-06-01T11:52:09.694Z,3.83
2019-06-01T11:54:41.211Z,3.87
2019-06-01T11:57:12.537Z,3.58
2019-06-01T11:59:43.648Z,4.20
2019-06-01T12:02:14.448Z,4.30
2019-06-01T12:04:46.374Z,4.12
2019-06-01T12:07:18.747Z,4.10
2019-06-01T12:09:50.707Z,4.00
2019-06-01T12:12:21.735Z,3.85
2019-06-01T12:14:53.781Z,3.37
2019-06-01T12:17:24.890Z,3.40
2019-06-01T12:19:55.768Z,3.77
2019-06-01T12:22:26.916Z,3.98
2019-06-01T12:24:57.632Z,3.50
2019-06-01T12:27:29.926Z,3.22
2019-06-01T12:30:00.495Z,3.37
2019-06-01T12:32:32.935Z,3.67
2019-06-01T12:35:05.562Z,3.35
2019-06-01T12:37:56.074Z,2.92
2019-06-01T12:40:10.615Z,3.12
2019-06-01T12:42:41.642Z,3.50
2019-06-01T12:45:23.064Z,3.58
2019-06-01T12:47:57.715Z,3.20
2019-06-01T12:50:25.508Z,3.10
2019-06-01T12:52:57.225Z,3.70
2019-06-01T12:55:29.176Z,3.30
2019-06-01T12:57:59.906Z,3.30
2019-06-01T13:00:30.637Z,3.20
2019-06-01T13:03:07.546Z,3.20
2019-06-01T13:05:34.251Z,2.98
2019-06-01T13:08:05.625Z,3.90
2019-06-01T13:10:37.876Z,3.10
2019-06-01T13:13:08.832Z,3.12
2019-06-01T13:15:41.131Z,2.72
2019-06-01T13:18:13.432Z,3.00
2019-06-01T13:20:45.433Z,2.72
2019-06-01T13:23:16.265Z,2.35
2019-06-01T13:25:47.665Z,2.37
2019-06-01T13:28:18.745Z,2.67
2019-06-01T13:30:50.983Z,2.30
2019-06-01T13:33:22.386Z,2.30
2019-06-01T13:35:53.266Z,2.60
2019-06-01T13:38:24.753Z,2.50
2019-06-01T13:40:55.631Z,3.22
2019-06-01T13:43:26.555Z,3.05
2019-06-01T13:45:57.929Z,3.05
2019-06-01T13:48:29.114Z,3.15
2019-06-01T13:51:00.004Z,3.08
2019-06-01T13:53:31.093Z,3.22
2019-06-01T13:56:02.172Z,4.03
2019-06-01T13:58:33.613Z,3.10
2019-06-01T14:01:04.986Z,3.25
2019-06-01T14:03:36.649Z,3.00
2019-06-01T14:06:08.214Z,3.72
2019-06-01T14:08:39.996Z,3.52
2019-06-01T14:11:11.907Z,3.90
2019-06-01T14:13:43.736Z,5.20
2019-06-01T14:16:15.395Z,3.30
2019-06-01T14:18:47.647Z,2.98
2019-06-01T14:21:19.376Z,3.27
2019-06-01T14:23:51.959Z,3.30
2019-06-01T14:26:22.987Z,3.42
2019-06-01T14:28:54.176Z,5.85
2019-06-01T14:31:25.446Z,3.08
2019-06-01T14:33:56.844Z,2.80
2019-06-01T14:36:28.154Z,2.83
2019-06-01T14:38:59.398Z,2.60
2019-06-01T14:41:30.356Z,2.45
2019-06-01T14:44:04.735Z,2.50
2019-06-01T14:46:52.422Z,1.90
2019-06-01T14:49:08.924Z,2.02
2019-06-01T14:51:40.924Z,2.20
2019-06-01T14:54:11.772Z,2.42
2019-06-01T14:56:43.351Z,2.47
2019-06-01T14:59:14.399Z,2.40
2019-06-01T15:01:45.683Z,2.20
2019-06-01T15:04:18.386Z,1.80
2019-06-01T15:06:50.212Z,2.00
2019-06-01T15:09:22.490Z,2.00
2019-06-01T15:11:54.533Z,1.90
2019-06-01T15:14:25.234Z,2.10
2019-06-01T15:16:56.248Z,1.92
2019-06-01T15:19:27.114Z,1.98
2019-06-01T15:21:58.349Z,2.60
2019-06-01T15:24:30.506Z,2.10
2019-06-01T15:27:01.322Z,2.12
2019-06-01T15:29:32.369Z,2.20
2019-06-01T15:32:03.882Z,2.08
2019-06-01T15:34:35.307Z,2.30
2019-06-01T15:37:07.215Z,1.87
2019-06-01T15:39:37.952Z,2.00
2019-06-01T15:42:09.050Z,2.12
2019-06-01T15:44:40.194Z,2.30
2019-06-01T15:47:11.513Z,2.25
2019-06-01T15:49:42.835Z,2.00
2019-06-01T15:52:13.732Z,2.12
2019-06-01T15:54:45.240Z,2.05
2019-06-01T15:57:16.685Z,2.22
2019-06-01T15:59:48.854Z,2.30
2019-06-01T16:02:23.038Z,2.20
2019-06-01T16:05:01.291Z,2.67
2019-06-01T16:07:34.944Z,2.30
2019-06-01T16:10:12.178Z,2.40
2019-06-01T16:15:42.104Z,2.15
2019-06-01T16:18:13.309Z,2.30
2019-06-01T16:20:44.813Z,2.20
2019-06-01T16:23:15.802Z,2.27
2019-06-01T16:25:57.407Z,2.62
2019-06-01T16:28:19.956Z,2.12
2019-06-01T16:30:51.149Z,2.35
2019-06-01T16:33:22.518Z,2.12
2019-06-01T16:35:54.914Z,2.40
2019-06-01T16:38:26.594Z,2.30
2019-06-01T16:40:57.575Z,2.10
2019-06-01T16:43:29.211Z,2.27
2019-06-01T16:46:02.113Z,2.58
2019-06-01T16:48:33.088Z,2.45
2019-06-01T16:51:05.902Z,2.30
2019-06-01T16:53:37.610Z,2.30
2019-06-01T16:56:09.056Z,2.35
2019-06-01T16:58:39.910Z,2.40
2019-06-01T17:01:11.823Z,2.35
2019-06-01T17:03:42.902Z,2.55
2019-06-01T17:06:15.381Z,2.70
2019-06-01T17:08:47.624Z,2.52
2019-06-01T17:11:21.070Z,2.42
2019-06-01T17:13:53.017Z,2.40
2019-06-01T17:16:24.152Z,2.58
2019-06-01T17:18:55.377Z,2.40
2019-06-01T17:21:26.782Z,2.62
2019-06-01T17:23:57.763Z,2.55
2019-06-01T17:26:29.110Z,2.30
2019-06-01T17:29:02.010Z,2.58
2019-06-01T17:31:35.398Z,2.40
2019-06-01T17:34:08.632Z,2.45
2019-06-01T17:36:41.390Z,2.30
2019-06-01T17:39:12.835Z,2.33
2019-06-01T17:41:45.586Z,2.35
2019-06-01T17:44:18.638Z,2.70
2019-06-01T17:46:53.938Z,2.60
2019-06-01T17:49:23.968Z,2.87
2019-06-01T17:51:54.974Z,3.40
2019-06-01T17:54:27.250Z,2.95
2019-06-01T17:56:59.070Z,3.12
2019-06-01T17:59:30.530Z,3.08
2019-06-01T18:02:01.900Z,3.17
2019-06-01T18:04:34.901Z,3.27
2019-06-01T18:07:08.028Z,3.80
2019-06-01T18:09:39.316Z,3.10
2019-06-01T18:12:10.695Z,3.40
2019-06-01T18:14:42.641Z,3.08
2019-06-01T18:17:13.711Z,4.37
2019-06-01T18:19:46.158Z,5.83
2019-06-01T18:22:17.302Z,7.83
2019-06-01T18:24:48.221Z,11.85
2019-06-01T18:27:19.655Z,7.55
2019-06-01T18:29:50.520Z,7.75
2019-06-01T18:32:22.572Z,8.60
2019-06-01T18:34:53.777Z,8.40
2019-06-01T18:37:25.873Z,11.60
2019-06-01T18:39:57.017Z,8.45
2019-06-01T18:42:30.023Z,7.12
2019-06-01T18:45:03.476Z,9.68
2019-06-01T18:47:34.599Z,6.85
2019-06-01T18:50:10.010Z,7.85
2019-06-01T18:52:42.223Z,6.78
2019-06-01T18:55:14.799Z,6.33
2019-06-01T18:57:48.625Z,6.28
2019-06-01T19:00:19.797Z,6.47
2019-06-01T19:02:51.672Z,6.00
2019-06-01T19:05:22.661Z,5.40
2019-06-01T19:07:53.541Z,6.22
2019-06-01T19:10:24.680Z,6.72
2019-06-01T19:12:55.942Z,7.08
2019-06-01T19:15:28.919Z,8.28
2019-06-01T19:17:59.877Z,7.03
2019-06-01T19:20:33.160Z,7.75
2019-06-01T19:23:06.520Z,6.78
2019-06-01T19:25:37.371Z,7.83
2019-06-01T19:28:08.858Z,7.85
2019-06-01T19:30:42.136Z,6.87
2019-06-01T19:33:15.507Z,8.20
2019-06-01T19:35:45.813Z,7.78
2019-06-01T19:38:19.541Z,7.80
2019-06-01T19:40:50.975Z,8.90
2019-06-01T19:43:22.307Z,8.68
2019-06-01T19:45:53.410Z,9.83
2019-06-01T19:48:24.592Z,10.03
2019-06-01T19:50:55.682Z,10.00
2019-06-01T19:53:26.795Z,11.75
2019-06-01T19:55:58.502Z,11.25
2019-06-01T19:58:29.686Z,11.78
2019-06-01T20:01:00.726Z,12.03
2019-06-01T20:03:31.827Z,12.35
2019-06-01T20:06:02.479Z,12.37
2019-06-01T20:08:33.326Z,11.40
2019-06-01T20:11:04.534Z,11.20
2019-06-01T20:13:37.464Z,10.68
2019-06-01T20:16:10.746Z,11.80
2019-06-01T20:18:42.394Z,12.35
2019-06-01T20:21:16.018Z,11.93
2019-06-01T20:23:47.307Z,11.20
2019-06-01T20:26:19.395Z,12.13
2019-06-01T20:28:51.040Z,12.68
2019-06-01T20:31:22.339Z,12.70
2019-06-01T20:33:56.472Z,12.45
2019-06-01T20:36:27.367Z,13.90
2019-06-01T20:39:04.073Z,13.33
2019-06-01T20:41:32.994Z,14.10
2019-06-01T20:44:06.035Z,13.30
2019-06-01T20:46:37.564Z,15.27
2019-06-01T20:49:08.729Z,14.40
2019-06-01T20:51:39.878Z,15.70
2019-06-01T20:54:11.273Z,16.83
2019-06-01T20:56:42.406Z,15.23
2019-06-01T20:59:17.221Z,14.30
2019-06-01T21:01:47.503Z,15.50
2019-06-01T21:04:22.292Z,13.20
2019-06-01T21:06:53.707Z,16.73
2019-06-01T21:09:24.566Z,14.97
2019-06-01T21:11:55.591Z,13.30
2019-06-01T21:14:26.552Z,13.53
2019-06-01T21:16:58.267Z,12.83
2019-06-01T21:19:29.734Z,12.57
2019-06-01T21:22:00.662Z,14.10
2019-06-01T21:24:33.128Z,13.20
2019-06-01T21:27:06.055Z,12.97
2019-06-01T21:29:37.226Z,14.80
2019-06-01T21:32:09.106Z,15.33
2019-06-01T21:34:40.060Z,14.23
2019-06-01T21:37:11.563Z,14.73
2019-06-01T21:39:44.351Z,16.17
2019-06-01T21:42:15.528Z,14.63
2019-06-01T21:44:46.817Z,16.77
2019-06-01T21:47:17.970Z,15.80
2019-06-01T21:49:49.025Z,16.67
2019-06-01T21:52:20.054Z,18.87
2019-06-01T21:54:50.782Z,15.80
2019-06-01T21:57:22.381Z,14.90
2019-06-01T21:59:53.738Z,15.17
2019-06-01T22:02:25.106Z,15.27
2019-06-01T22:04:57.097Z,17.00
2019-06-01T22:07:28.139Z,15.53
2019-06-01T22:10:01.817Z,16.40
2019-06-01T22:12:32.793Z,14.87
2019-06-01T22:15:04.260Z,17.00
2019-06-01T22:17:37.057Z,15.63
2019-06-01T22:20:08.252Z,16.93
2019-06-01T22:22:39.235Z,17.03
2019-06-01T22:25:10.947Z,14.63
2019-06-01T22:27:41.825Z,17.57
2019-06-01T22:30:13.714Z,17.53
2019-06-01T22:32:45.283Z,18.63
2019-06-01T22:35:16.669Z,18.60
2019-06-01T22:37:48.806Z,17.10
2019-06-01T22:40:20.855Z,16.93
2019-06-01T22:42:51.722Z,17.03
2019-06-01T22:45:22.594Z,17.00
2019-06-01T22:47:53.679Z,15.37
2019-06-01T22:50:24.837Z,14.77
2019-06-01T22:52:56.153Z,14.67
2019-06-01T22:55:28.344Z,12.40
2019-06-01T22:57:59.662Z,12.73
2019-06-01T23:00:31.990Z,12.37
2019-06-01T23:03:02.912Z,12.00
2019-06-01T23:05:33.931Z,12.93
2019-06-01T23:08:05.479Z,13.70
2019-06-01T23:10:36.624Z,13.07
2019-06-01T23:13:07.745Z,12.50
2019-06-01T23:15:38.956Z,12.63
2019-06-01T23:18:12.886Z,12.53
2019-06-01T23:20:43.673Z,12.27
2019-06-01T23:23:14.692Z,11.43
2019-06-01T23:25:45.769Z,12.03
2019-06-01T23:28:16.947Z,11.43
2019-06-01T23:30:47.849Z,11.73
2019-06-01T23:33:18.681Z,11.97
2019-06-01T23:35:49.515Z,11.33
2019-06-01T23:38:20.437Z,11.77
2019-06-01T23:40:51.886Z,12.17
2019-06-01T23:43:22.814Z,11.93
2019-06-01T23:45:53.977Z,11.87
2019-06-01T23:48:25.153Z,12.07
2019-06-01T23:50:57.255Z,11.50
2019-06-01T23:53:29.492Z,11.50
2019-06-01T23:56:00.403Z,11.60
2019-06-01T23:58:32.516Z,11.67
